Time;durP1;ratioP1;P1;durP2;ratioP2;P2;SDS_P1;SDS_P2;PMS_P1;PMS_P2;Temp;Humidity;BMP_temperature;BMP_pressure;BME280_temperature;BME280_humidity;BME280_pressure;Samples;Min_cycle;Max_cycle;Signal;HPM_P1;HPM_P2
2020/12/31 05:40:28;;;;;;;23.87;14.83;;;;;;;4.18;91.30;99988.17;1754995;79;21221;-45
2020/12/31 05:42:56;;;;;;;31.25;15.90;;;;;;;4.16;91.32;99985.95;1732788;80;21157;-44
2020/12/31 05:45:27;;;;;;;24.15;14.90;;;;;;;4.17;91.37;99985.53;1685567;81;21661;-44
2020/12/31 05:47:54;;;;;;;24.82;15.50;;;;;;;4.18;91.31;99986.88;1729802;81;21659;-44
2020/12/31 05:50:26;;;;;;;26.40;15.98;;;;;;;4.18;91.28;99989.47;1724280;80;21688;-44
2020/12/31 05:52:54;;;;;;;28.02;17.20;;;;;;;4.20;91.34;99991.66;1750521;81;21160;-44
2020/12/31 05:55:23;;;;;;;27.95;15.58;;;;;;;4.23;91.33;99990.44;1745172;80;21159;-44
2020/12/31 05:57:56;;;;;;;27.48;16.25;;;;;;;4.27;91.28;99993.95;1746370;82;21123;-44
2020/12/31 06:00:26;;;;;;;23.35;15.80;;;;;;;4.30;91.19;99987.98;1744098;80;21192;-44
2020/12/31 06:02:56;;;;;;;32.15;16.93;;;;;;;4.34;91.14;99987.17;1736289;80;21488;-44
2020/12/31 06:05:25;;;;;;;27.17;16.65;;;;;;;4.40;91.08;99993.34;1745854;80;21661;-44
2020/12/31 06:07:57;;;;;;;26.10;16.37;;;;;;;4.44;90.86;99991.70;1744647;81;21163;-44
2020/12/31 06:10:27;;;;;;;26.62;16.12;;;;;;;4.45;90.83;99984.38;1725332;80;21166;-44
2020/12/31 06:13:18;;;;;;;19.43;12.30;;;;;;;4.48;90.72;99989.63;1746493;80;21260;-44
2020/12/31 06:18:17;;;;;;;28.20;15.63;;;;;;;4.57;90.49;99990.22;1761856;79;23118;-42
2020/12/31 06:20:47;;;;;;;25.45;15.13;;;;;;;4.52;90.32;99993.62;1733302;82;21291;-43
2020/12/31 06:23:15;;;;;;;25.55;15.25;;;;;;;4.53;90.22;99991.89;1686374;82;21152;-43
2020/12/31 06:25:49;;;;;;;24.37;15.15;;;;;;;4.53;90.20;99996.66;1715069;82;21220;-43
2020/12/31 06:28:21;;;;;;;27.85;15.68;;;;;;;4.55;90.10;100000.56;1709221;82;21203;-44
2020/12/31 06:30:55;;;;;;;27.52;15.05;;;;;;;4.55;90.08;100000.56;1707467;82;21222;-44
2020/12/31 06:33:31;;;;;;;28.45;14.80;;;;;;;4.55;89.95;99994.08;1712234;82;21128;-44
2020/12/31 06:36:01;;;;;;;25.20;14.60;;;;;;;4.56;89.80;99989.34;1713129;83;21461;-44
2020/12/31 06:38:42;;;;;;;26.30;14.87;;;;;;;4.56;89.71;99990.64;1708852;82;21738;-44
2020/12/31 06:41:35;;;;;;;24.72;15.30;;;;;;;4.58;89.68;99989.37;1708080;82;21215;-44
2020/12/31 06:44:10;;;;;;;26.20;15.38;;;;;;;4.56;89.58;99985.45;1710873;82;21124;-44
2020/12/31 06:46:47;;;;;;;24.50;14.70;;;;;;;4.56;89.62;99994.53;1710250;82;21199;-44
2020/12/31 06:49:15;;;;;;;23.42;14.93;;;;;;;4.57;89.61;99988.50;1718773;82;21186;-44
2020/12/31 06:51:42;;;;;;;21.85;13.88;;;;;;;4.61;89.61;99990.73;1707006;83;21231;-44
2020/12/31 06:54:11;;;;;;;24.35;14.50;;;;;;;4.64;89.56;99992.98;1712759;82;21218;-39
2020/12/31 06:56:49;;;;;;;24.77;16.05;;;;;;;4.68;89.47;99992.59;1716041;82;21150;-39
2020/12/31 06:59:38;;;;;;;28.77;15.43;;;;;;;4.69;89.29;99991.31;1720575;82;21162;-39
2020/12/31 07:02:20;;;;;;;23.80;15.08;;;;;;;4.71;89.18;99992.23;1710877;82;21182;-39
2020/12/31 07:04:48;;;;;;;25.65;15.98;;;;;;;4.73;89.15;99985.36;1709857;82;21159;-39
2020/12/31 07:07:24;;;;;;;23.47;15.18;;;;;;;4.75;89.00;99988.88;1715206;82;21215;-43
2020/12/31 07:10:00;;;;;;;26.27;16.52;;;;;;;4.78;88.99;99981.13;1712579;82;21537;-44
2020/12/31 07:12:46;;;;;;;22.50;14.58;;;;;;;4.83;88.80;99982.52;1717554;82;21157;-44
2020/12/31 07:15:16;;;;;;;24.05;13.90;;;;;;;4.87;88.66;99994.70;1718099;82;21133;-44
2020/12/31 07:17:47;;;;;;;25.52;14.35;;;;;;;4.90;88.24;100000.35;1706729;82;21195;-44
2020/12/31 07:20:16;;;;;;;22.25;13.32;;;;;;;4.92;88.13;99993.03;1713615;82;21182;-43
2020/12/31 07:22:46;;;;;;;23.18;14.53;;;;;;;4.95;88.01;99997.42;1695720;83;21189;-38
2020/12/31 07:25:17;;;;;;;22.27;13.85;;;;;;;4.97;87.98;100001.77;1689845;83;21158;-39
2020/12/31 07:27:46;;;;;;;20.35;12.30;;;;;;;4.99;87.76;99996.22;1688830;84;21153;-39
2020/12/31 07:34:20;;;;;;;22.75;13.05;;;;;;;5.12;87.63;99988.64;1800888;79;22980;-40
2020/12/31 07:37:03;;;;;;;20.82;12.53;;;;;;;5.10;87.51;99998.09;1771161;80;21179;-39
2020/12/31 07:39:33;;;;;;;18.30;12.05;;;;;;;5.13;87.49;99992.55;1772342;79;21155;-42
2020/12/31 07:42:16;;;;;;;20.40;13.40;;;;;;;5.17;87.39;99995.66;1765454;80;21611;-38
2020/12/31 07:44:55;;;;;;;20.25;13.22;;;;;;;5.21;87.31;100001.32;1767044;80;21752;-38
2020/12/31 07:47:24;;;;;;;21.15;11.90;;;;;;;5.24;87.19;99992.73;1736614;81;21606;-39
2020/12/31 07:49:52;;;;;;;20.90;13.75;;;;;;;5.26;87.15;99994.49;1715602;82;21680;-43
2020/12/31 07:52:26;;;;;;;19.40;12.93;;;;;;;5.28;87.04;100005.79;1710434;82;21196;-43
2020/12/31 07:55:00;;;;;;;17.20;11.35;;;;;;;5.29;87.02;99998.45;1715817;81;21189;-42
2020/12/31 07:57:30;;;;;;;20.52;12.33;;;;;;;5.34;87.11;100010.20;1691731;83;21227;-43
2020/12/31 07:59:59;;;;;;;22.50;13.22;;;;;;;5.39;87.10;100007.23;1742359;81;21674;-43
2020/12/31 08:02:26;;;;;;;19.15;11.90;;;;;;;5.48;86.96;100011.72;1732717;81;21183;-43
2020/12/31 08:04:54;;;;;;;18.50;12.45;;;;;;;5.51;86.80;100008.76;1731381;81;22017;-38
2020/12/31 08:07:23;;;;;;;18.80;12.80;;;;;;;5.57;86.66;100002.37;1707998;81;21162;-38
2020/12/31 08:09:51;;;;;;;16.77;12.13;;;;;;;5.64;86.58;100007.65;1718791;82;21716;-39
2020/12/31 08:12:20;;;;;;;19.37;12.78;;;;;;;5.72;86.45;100008.62;1712846;82;21198;-38
2020/12/31 08:14:49;;;;;;;18.67;12.82;;;;;;;5.79;86.28;100009.16;1717058;82;21166;-38
2020/12/31 08:17:19;;;;;;;20.85;11.93;;;;;;;5.84;86.00;100005.78;1688507;83;21220;-40
2020/12/31 08:19:50;;;;;;;17.42;11.75;;;;;;;5.91;85.76;99994.17;1716450;82;21229;-38
2020/12/31 08:22:33;;;;;;;18.27;12.55;;;;;;;5.95;85.53;99996.01;1716260;82;21199;-43
2020/12/31 08:25:11;;;;;;;16.55;11.73;;;;;;;5.96;85.27;100001.21;1721159;82;21599;-43
2020/12/31 08:27:41;;;;;;;20.25;12.58;;;;;;;5.99;85.27;99999.11;1714411;81;21149;-43
2020/12/31 08:30:10;;;;;;;20.65;11.33;;;;;;;6.00;85.38;99995.65;1713241;81;21525;-43
2020/12/31 08:32:54;;;;;;;17.62;12.18;;;;;;;6.04;85.38;99998.75;1702393;83;21840;-43
2020/12/31 08:35:38;;;;;;;17.27;11.33;;;;;;;6.07;85.20;99997.04;1733678;80;21167;-43
2020/12/31 08:38:13;;;;;;;16.37;10.55;;;;;;;6.11;84.87;99994.07;1736722;80;21176;-43
2020/12/31 08:40:50;;;;;;;18.30;12.30;;;;;;;6.12;84.69;99994.52;1734333;80;21191;-43
2020/12/31 08:43:31;;;;;;;15.30;10.32;;;;;;;6.13;84.67;99992.36;1734240;81;21183;-43
2020/12/31 08:46:00;;;;;;;15.30;9.88;;;;;;;6.15;84.53;99976.38;1738285;80;21135;-43
2020/12/31 08:48:35;;;;;;;21.52;12.80;;;;;;;6.16;84.50;99978.13;1734401;81;21191;-43
